Beaver Island, MI

6:18 PM EST on December 07, 2016 (GMT -0500)
Beaver Island | | Change Station
Active Advisory: Winter Storm Warning

Elev 669 ft 45.69 °N, 85.57 °W | Updated 3 minutes ago

Overcast
Overcast
29 °F
Feels Like 17 °F
N
17
Wind Variable Wind from WSW
Gusts 29 mph

Today
High -- | Low -- °F
--% Chance of Precip.
Yesterday
High -- | Low -- °F
Precip. -- in
Pressure 29.82 in
Visibility 10.0 miles
Clouds Mostly Cloudy 3300 ft
Overcast 4400 ft
Windchill 17 °F
Dew Point 19 °F
Humidity 65%
Rainfall 0.00 in
Snow Depth Not available.
8:09 AM 4:58 PM
First Quarter, 57% visible
METAR KSJX 072315Z AUTO 25015G25KT 10SM BKN033 OVC044 M01/M07 A2982 RMK AO2 T10151073
Pressure 29.82 in
Visibility 10.0 miles
Clouds Mostly Cloudy 3300 ft
Overcast 4400 ft
Windchill 17 °F
Dew Point 19 °F
Humidity 65%
Rainfall 0.00 in
Snow Depth Not available.
8:09 AM 4:58 PM
First Quarter, 57% visible
METAR KSJX 072315Z AUTO 25015G25KT 10SM BKN033 OVC044 M01/M07 A2982 RMK AO2 T10151073

10-Day Weather Forecast

Almanac

Astronomy

Dec. 07, 2016 Rise Set
Actual Time
Civil Twilight
Nautical Twilight
Astronomical Twilight
Moon
Length of Visible Light
Length of Day
Tomorrow will be .
, % of the Moon is Illuminated

Today's Extremes

State Highs State Lows

Community

WunderPhotos

Upload Photos

1,956,216 photos uploaded!

WunderBlog® & News

Nearby

Air Quality

  Air Quality AQ Index Pollutant
Not available.

Snow Depth

Station Depth Elevation

Earthquake Activity

City Distance Mag. Time & Date
Minimum magnitude displayed is 2.5.

Coastal Water Temperatures

Place Temperature

Stations

Nearby Weather Stations

Station Location Temp. Windchill Dew Point Humidity Wind Precip. Elev Updated Type
                   

Watches & Warnings

Winter Storm Warning
Issued: 4:59 PM EST Dec. 7, 2016 – National Weather Service

... Winter Storm Warning in effect from midnight tonight to 3 PM
EST Friday...

The National Weather Service in Gaylord has issued a Winter Storm
Warning... which is in effect from midnight tonight to 3 PM EST
Friday. The Winter Weather Advisory is no longer in effect.

* Snow showers will increase in coverage tonight and continue
through Friday afternoon. Snow bands will be shifting from
southwest to northwest later tonight into the day Thursday.

* The heaviest snowfall rates will occur Thursday through Thursday
night.

* Total snow accumulations of 6 to 12 inches are expected through
Friday afternoon.

* Look for significant reductions in visibility at times.

* Plan on difficult driving conditions... including during the
evening commute on Thursday.

Precautionary/preparedness actions...

A Winter Storm Warning for snow means severe winter weather
conditions are expected. If you must travel... keep an extra
flashlight... food... and water in your vehicle in case of an
emergency. For the latest Road conditions... go to the mdot
website at Michigan.Gov.